EFW81W EGKK-LGKO
Flight info
| Callsign | EFW81W |
|---|---|
| Flight time | 3h 25m |
| Altitude | 33000 |
| Route | ODVIK Y311 DVR UL9 KONAN DCT KOK DCT CIV DCT SUTAL DCT GTQ DCT BEGAR DCT TRA DCT SUXAN DCT ROKIB/N0449F350 DCT ROTAR DCT SPL DCT MAVAR DCT TALAS UN130 MES UN139 LURUS L995 KOPAR |
| Aircraft | A321/M-SDE3FGHIRWY/LB1 |
Departure
| Time | 2026-05-06 07:38 |
|---|---|
| Airport | London Gatwick Airport (EGKK) |
Arrival
| Time | 2026-05-06 11:04 |
|---|---|
| Airport | Kos International Airport "Ippokratis" (LGKO) |
| Time | Latitude | Longitude | Altitude | Speed | Heading |
|---|---|---|---|---|---|
| 2026-05-06 07:13 | 51.15490 | -0.16905 | 211 ft | 0 kts | 349° |
| 2026-05-06 07:25 | 51.15489 | -0.16904 | 216 ft | 2 kts | 349° |
| 2026-05-06 07:25 | 51.15466 | -0.16898 | 215 ft | 4 kts | 343° |
| 2026-05-06 07:26 | 51.15448 | -0.16878 | 217 ft | 4 kts | 283° |
| 2026-05-06 07:26 | 51.15448 | -0.16840 | 215 ft | 2 kts | 258° |
| 2026-05-06 07:26 | 51.15449 | -0.16832 | 214 ft | 0 kts | 258° |
| 2026-05-06 07:29 | 51.15449 | -0.16833 | 214 ft | 1 kts | 258° |
| 2026-05-06 07:29 | 51.15445 | -0.16865 | 213 ft | 6 kts | 257° |
| 2026-05-06 07:29 | 51.15432 | -0.16953 | 207 ft | 10 kts | 257° |
| 2026-05-06 07:30 | 51.15417 | -0.17064 | 213 ft | 11 kts | 258° |
| 2026-05-06 07:30 | 51.15391 | -0.17176 | 208 ft | 11 kts | 242° |
| 2026-05-06 07:30 | 51.15365 | -0.17308 | 209 ft | 14 kts | 252° |
| 2026-05-06 07:30 | 51.15304 | -0.17423 | 208 ft | 14 kts | 250° |
| 2026-05-06 07:31 | 51.15284 | -0.17581 | 209 ft | 16 kts | 258° |
| 2026-05-06 07:31 | 51.15260 | -0.17756 | 214 ft | 16 kts | 257° |
| 2026-05-06 07:31 | 51.15235 | -0.17937 | 208 ft | 17 kts | 257° |
| 2026-05-06 07:31 | 51.15209 | -0.18123 | 205 ft | 18 kts | 257° |
| 2026-05-06 07:32 | 51.15187 | -0.18318 | 214 ft | 18 kts | 265° |
| 2026-05-06 07:32 | 51.15161 | -0.18516 | 213 ft | 18 kts | 257° |
| 2026-05-06 07:32 | 51.15133 | -0.18717 | 204 ft | 19 kts | 257° |
| 2026-05-06 07:32 | 51.15105 | -0.18924 | 207 ft | 19 kts | 258° |
| 2026-05-06 07:33 | 51.15077 | -0.19131 | 205 ft | 19 kts | 257° |
| 2026-05-06 07:33 | 51.15049 | -0.19338 | 208 ft | 20 kts | 258° |
| 2026-05-06 07:33 | 51.15020 | -0.19549 | 209 ft | 19 kts | 258° |
| 2026-05-06 07:33 | 51.14990 | -0.19761 | 205 ft | 20 kts | 257° |
| 2026-05-06 07:34 | 51.14961 | -0.19974 | 205 ft | 20 kts | 257° |
| 2026-05-06 07:34 | 51.14931 | -0.20188 | 205 ft | 20 kts | 258° |
| 2026-05-06 07:34 | 51.14903 | -0.20385 | 204 ft | 18 kts | 257° |
| 2026-05-06 07:34 | 51.14876 | -0.20586 | 210 ft | 19 kts | 258° |
| 2026-05-06 07:35 | 51.14848 | -0.20790 | 205 ft | 19 kts | 258° |
| 2026-05-06 07:35 | 51.14820 | -0.20991 | 207 ft | 18 kts | 257° |
| 2026-05-06 07:35 | 51.14788 | -0.21173 | 215 ft | 16 kts | 249° |
| 2026-05-06 07:35 | 51.14760 | -0.21350 | 205 ft | 16 kts | 256° |
| 2026-05-06 07:36 | 51.14677 | -0.21385 | 209 ft | 15 kts | 148° |
| 2026-05-06 07:36 | 51.14615 | -0.21330 | 207 ft | 0 kts | 166° |
| 2026-05-06 07:36 | 51.14613 | -0.21329 | 207 ft | 1 kts | 166° |
| 2026-05-06 07:36 | 51.14598 | -0.21324 | 205 ft | 4 kts | 166° |
| 2026-05-06 07:37 | 51.14553 | -0.21292 | 214 ft | 10 kts | 144° |
| 2026-05-06 07:37 | 51.14520 | -0.21179 | 206 ft | 12 kts | 86° |
| 2026-05-06 07:37 | 51.14539 | -0.21040 | 213 ft | 18 kts | 77° |
| 2026-05-06 07:37 | 51.14620 | -0.20454 | 211 ft | 89 kts | 77° |
| 2026-05-06 07:38 | 51.14798 | -0.19163 | 212 ft | 148 kts | 78° |
| 2026-05-06 07:38 | 51.15045 | -0.17385 | 545 ft | 167 kts | 73° |
| 2026-05-06 07:38 | 51.15302 | -0.15584 | 1332 ft | 166 kts | 73° |
| 2026-05-06 07:38 | 51.15560 | -0.13723 | 1828 ft | 181 kts | 73° |
| 2026-05-06 07:39 | 51.15846 | -0.11652 | 2032 ft | 202 kts | 73° |
| 2026-05-06 07:39 | 51.16164 | -0.09348 | 2184 ft | 223 kts | 74° |
| 2026-05-06 07:39 | 51.16507 | -0.06849 | 2522 ft | 240 kts | 74° |
| 2026-05-06 07:39 | 51.16856 | -0.04209 | 3100 ft | 248 kts | 78° |
| 2026-05-06 07:40 | 51.16882 | -0.01401 | 3685 ft | 258 kts | 88° |
| 2026-05-06 07:40 | 51.16825 | 0.01489 | 4372 ft | 264 kts | 88° |
| 2026-05-06 07:40 | 51.16767 | 0.04441 | 5025 ft | 270 kts | 88° |
| 2026-05-06 07:40 | 51.16707 | 0.07450 | 5685 ft | 274 kts | 88° |
| 2026-05-06 07:41 | 51.16647 | 0.10518 | 6036 ft | 279 kts | 88° |
| 2026-05-06 07:41 | 51.16587 | 0.13608 | 6101 ft | 279 kts | 88° |
| 2026-05-06 07:41 | 51.16534 | 0.16699 | 6113 ft | 279 kts | 87° |
| 2026-05-06 07:41 | 51.16522 | 0.19741 | 6119 ft | 278 kts | 86° |
| 2026-05-06 07:42 | 51.16532 | 0.22820 | 6130 ft | 278 kts | 86° |
| 2026-05-06 07:42 | 51.16546 | 0.25903 | 6137 ft | 278 kts | 85° |
| 2026-05-06 07:42 | 51.16560 | 0.29019 | 6144 ft | 278 kts | 85° |
| 2026-05-06 07:42 | 51.16575 | 0.32100 | 6145 ft | 278 kts | 86° |
| 2026-05-06 07:43 | 51.16585 | 0.35178 | 6145 ft | 278 kts | 86° |
| 2026-05-06 07:43 | 51.16592 | 0.38260 | 6145 ft | 278 kts | 86° |
| 2026-05-06 07:43 | 51.16595 | 0.41336 | 6145 ft | 278 kts | 86° |
| 2026-05-06 07:43 | 51.16594 | 0.44419 | 6145 ft | 278 kts | 86° |
| 2026-05-06 07:44 | 51.16593 | 0.47494 | 6157 ft | 278 kts | 86° |
| 2026-05-06 07:44 | 51.16594 | 0.50592 | 6317 ft | 282 kts | 85° |
| 2026-05-06 07:44 | 51.16595 | 0.53718 | 7021 ft | 283 kts | 86° |
| 2026-05-06 07:44 | 51.16595 | 0.56817 | 7685 ft | 285 kts | 87° |
| 2026-05-06 07:45 | 51.16592 | 0.59988 | 8319 ft | 288 kts | 87° |
| 2026-05-06 07:45 | 51.16588 | 0.63188 | 8953 ft | 290 kts | 88° |
| 2026-05-06 07:45 | 51.16583 | 0.66417 | 9572 ft | 293 kts | 87° |
| 2026-05-06 07:45 | 51.16577 | 0.69681 | 10149 ft | 296 kts | 88° |
| 2026-05-06 07:46 | 51.16571 | 0.73048 | 10360 ft | 314 kts | 89° |
| 2026-05-06 07:46 | 51.16563 | 0.76621 | 10474 ft | 332 kts | 88° |
| 2026-05-06 07:46 | 51.16552 | 0.80397 | 10583 ft | 349 kts | 88° |
| 2026-05-06 07:46 | 51.16541 | 0.84339 | 10808 ft | 361 kts | 89° |
| 2026-05-06 07:47 | 51.16530 | 0.88367 | 11266 ft | 365 kts | 89° |
| 2026-05-06 07:47 | 51.16516 | 0.92426 | 11765 ft | 368 kts | 88° |
| 2026-05-06 07:47 | 51.16502 | 0.96520 | 12254 ft | 371 kts | 90° |
| 2026-05-06 07:47 | 51.16483 | 1.00645 | 12822 ft | 373 kts | 90° |
| 2026-05-06 07:48 | 51.16461 | 1.04784 | 13367 ft | 375 kts | 90° |
| 2026-05-06 07:48 | 51.16439 | 1.08955 | 13884 ft | 377 kts | 90° |
| 2026-05-06 07:48 | 51.16415 | 1.13140 | 14356 ft | 379 kts | 90° |
| 2026-05-06 07:48 | 51.16392 | 1.17359 | 14795 ft | 382 kts | 90° |
| 2026-05-06 07:49 | 51.16367 | 1.21607 | 15243 ft | 385 kts | 90° |
| 2026-05-06 07:49 | 51.16337 | 1.25887 | 15711 ft | 387 kts | 89° |
| 2026-05-06 07:49 | 51.16305 | 1.30195 | 16136 ft | 391 kts | 89° |
| 2026-05-06 07:49 | 51.16272 | 1.34479 | 16566 ft | 393 kts | 90° |
| 2026-05-06 07:50 | 51.16198 | 1.38840 | 17010 ft | 396 kts | 92° |
| 2026-05-06 07:50 | 51.16035 | 1.43245 | 17404 ft | 400 kts | 92° |
| 2026-05-06 07:50 | 51.15813 | 1.47653 | 17903 ft | 399 kts | 93° |
| 2026-05-06 07:50 | 51.15564 | 1.52066 | 18328 ft | 401 kts | 95° |
| 2026-05-06 07:51 | 51.15309 | 1.56499 | 18679 ft | 403 kts | 93° |
| 2026-05-06 07:51 | 51.15062 | 1.60961 | 19033 ft | 405 kts | 94° |
| 2026-05-06 07:51 | 51.14826 | 1.65441 | 19393 ft | 407 kts | 94° |
| 2026-05-06 07:51 | 51.14597 | 1.69948 | 19723 ft | 410 kts | 93° |
| 2026-05-06 07:52 | 51.14370 | 1.74485 | 20072 ft | 412 kts | 93° |
| 2026-05-06 07:52 | 51.14145 | 1.79036 | 20425 ft | 414 kts | 92° |
| 2026-05-06 07:52 | 51.13919 | 1.83624 | 20756 ft | 416 kts | 94° |
| 2026-05-06 07:52 | 51.13690 | 1.88224 | 21105 ft | 418 kts | 94° |
| 2026-05-06 07:53 | 51.13455 | 1.92853 | 21461 ft | 420 kts | 94° |
| 2026-05-06 07:53 | 51.13215 | 1.97494 | 21839 ft | 421 kts | 95° |
| 2026-05-06 07:53 | 51.12969 | 2.02151 | 22197 ft | 423 kts | 95° |
| 2026-05-06 07:53 | 51.12719 | 2.06833 | 22517 ft | 426 kts | 95° |
| 2026-05-06 07:54 | 51.12466 | 2.11544 | 22829 ft | 428 kts | 95° |
| 2026-05-06 07:54 | 51.12210 | 2.16282 | 23158 ft | 431 kts | 95° |
| 2026-05-06 07:54 | 51.11959 | 2.20950 | 23450 ft | 433 kts | 95° |
| 2026-05-06 07:54 | 51.11701 | 2.25741 | 23724 ft | 435 kts | 95° |
| 2026-05-06 07:55 | 51.11439 | 2.30544 | 24020 ft | 436 kts | 95° |
| 2026-05-06 07:55 | 51.11172 | 2.35365 | 24299 ft | 438 kts | 95° |
| 2026-05-06 07:55 | 51.10901 | 2.40202 | 24589 ft | 439 kts | 95° |
| 2026-05-06 07:55 | 51.10624 | 2.45047 | 24880 ft | 441 kts | 96° |
| 2026-05-06 07:56 | 51.10341 | 2.49912 | 25152 ft | 442 kts | 95° |
| 2026-05-06 07:56 | 51.10060 | 2.54787 | 25452 ft | 443 kts | 95° |
| 2026-05-06 07:56 | 51.09714 | 2.59668 | 25741 ft | 444 kts | 101° |
| 2026-05-06 07:56 | 51.08946 | 2.64418 | 26017 ft | 445 kts | 110° |
| 2026-05-06 07:57 | 51.07730 | 2.68867 | 26283 ft | 445 kts | 119° |
| 2026-05-06 07:57 | 51.06079 | 2.73028 | 26551 ft | 446 kts | 126° |
| 2026-05-06 07:57 | 51.04311 | 2.77082 | 26828 ft | 447 kts | 125° |
| 2026-05-06 07:57 | 51.02543 | 2.81152 | 27112 ft | 448 kts | 125° |
| 2026-05-06 07:58 | 51.00773 | 2.85237 | 27405 ft | 448 kts | 125° |
| 2026-05-06 07:58 | 50.99009 | 2.89309 | 27731 ft | 448 kts | 125° |
| 2026-05-06 07:58 | 50.97238 | 2.93383 | 27952 ft | 449 kts | 125° |
| 2026-05-06 07:58 | 50.95461 | 2.97462 | 28218 ft | 449 kts | 125° |
| 2026-05-06 07:59 | 50.93684 | 3.01537 | 28436 ft | 450 kts | 125° |
| 2026-05-06 07:59 | 50.91902 | 3.05614 | 28725 ft | 449 kts | 125° |
| 2026-05-06 07:59 | 50.90123 | 3.09678 | 29005 ft | 448 kts | 125° |
| 2026-05-06 07:59 | 50.88346 | 3.13729 | 29304 ft | 447 kts | 125° |
| 2026-05-06 08:00 | 50.86571 | 3.17768 | 29563 ft | 447 kts | 125° |
| 2026-05-06 08:00 | 50.84799 | 3.21799 | 29899 ft | 445 kts | 125° |
| 2026-05-06 08:00 | 50.83031 | 3.25812 | 30161 ft | 444 kts | 124° |
| 2026-05-06 08:00 | 50.81269 | 3.29800 | 30480 ft | 441 kts | 124° |
| 2026-05-06 08:01 | 50.80106 | 3.32432 | 30590 ft | 442 kts | 124° |
| 2026-05-06 08:01 | 50.77771 | 3.37711 | 30815 ft | 444 kts | 124° |
| 2026-05-06 08:01 | 50.75995 | 3.41712 | 30967 ft | 445 kts | 125° |
| 2026-05-06 08:01 | 50.74216 | 3.45708 | 31196 ft | 444 kts | 124° |
| 2026-05-06 08:02 | 50.72436 | 3.49697 | 31383 ft | 445 kts | 124° |
| 2026-05-06 08:02 | 50.70656 | 3.53688 | 31592 ft | 444 kts | 124° |
| 2026-05-06 08:02 | 50.68874 | 3.57682 | 31758 ft | 445 kts | 124° |
| 2026-05-06 08:02 | 50.67671 | 3.60375 | 31902 ft | 446 kts | 125° |
| 2026-05-06 08:03 | 50.65882 | 3.64375 | 32049 ft | 447 kts | 125° |
| 2026-05-06 08:03 | 50.64091 | 3.68373 | 32246 ft | 447 kts | 124° |
| 2026-05-06 08:03 | 50.62318 | 3.72317 | 32424 ft | 447 kts | 124° |
| 2026-05-06 08:03 | 50.60526 | 3.76300 | 32667 ft | 445 kts | 125° |
| 2026-05-06 08:04 | 50.58736 | 3.80274 | 32840 ft | 446 kts | 125° |
| 2026-05-06 08:04 | 50.56948 | 3.84244 | 32873 ft | 444 kts | 125° |
| 2026-05-06 08:04 | 50.53529 | 3.92306 | 32860 ft | 442 kts | 123° |
| 2026-05-06 08:05 | 50.50245 | 4.00458 | 32859 ft | 441 kts | 123° |
| 2026-05-06 08:05 | 50.46935 | 4.08588 | 32848 ft | 443 kts | 123° |
| 2026-05-06 08:06 | 50.43574 | 4.16664 | 32859 ft | 442 kts | 124° |
| 2026-05-06 08:06 | 50.40195 | 4.24706 | 32862 ft | 441 kts | 123° |
| 2026-05-06 08:07 | 50.36816 | 4.32744 | 32860 ft | 442 kts | 124° |
| 2026-05-06 08:07 | 50.33432 | 4.40788 | 32873 ft | 442 kts | 124° |
| 2026-05-06 08:08 | 50.30045 | 4.48823 | 32864 ft | 442 kts | 124° |
| 2026-05-06 08:08 | 50.26670 | 4.56801 | 32868 ft | 443 kts | 124° |
| 2026-05-06 08:09 | 50.23245 | 4.64875 | 32848 ft | 442 kts | 125° |
| 2026-05-06 08:09 | 50.19857 | 4.72817 | 32840 ft | 443 kts | 124° |
| 2026-05-06 08:10 | 50.16442 | 4.80816 | 32845 ft | 443 kts | 124° |
| 2026-05-06 08:10 | 50.13023 | 4.88806 | 32849 ft | 443 kts | 125° |
| 2026-05-06 08:11 | 50.09599 | 4.96777 | 32840 ft | 443 kts | 125° |
| 2026-05-06 08:11 | 50.06160 | 5.04746 | 32840 ft | 444 kts | 126° |
| 2026-05-06 08:12 | 50.02713 | 5.12720 | 32833 ft | 444 kts | 126° |
| 2026-05-06 08:12 | 49.99266 | 5.20684 | 32830 ft | 444 kts | 125° |
| 2026-05-06 08:13 | 49.95810 | 5.28642 | 32832 ft | 444 kts | 126° |
| 2026-05-06 08:13 | 49.92368 | 5.36536 | 32831 ft | 444 kts | 126° |
| 2026-05-06 08:14 | 49.88894 | 5.44477 | 32832 ft | 445 kts | 126° |
| 2026-05-06 08:14 | 49.85412 | 5.52414 | 32810 ft | 446 kts | 126° |
| 2026-05-06 08:15 | 49.81919 | 5.60358 | 32800 ft | 447 kts | 126° |
| 2026-05-06 08:15 | 49.78409 | 5.68314 | 32795 ft | 448 kts | 126° |
| 2026-05-06 08:16 | 49.74892 | 5.76272 | 32800 ft | 448 kts | 127° |
| 2026-05-06 08:16 | 49.71361 | 5.84211 | 32795 ft | 448 kts | 127° |
| 2026-05-06 08:17 | 49.67821 | 5.92145 | 32787 ft | 448 kts | 127° |
| 2026-05-06 08:17 | 49.64287 | 6.00074 | 32795 ft | 448 kts | 127° |
| 2026-05-06 08:18 | 49.60741 | 6.07987 | 32798 ft | 448 kts | 127° |
| 2026-05-06 08:18 | 49.57194 | 6.15893 | 32796 ft | 448 kts | 128° |
| 2026-05-06 08:19 | 49.53666 | 6.23722 | 32805 ft | 448 kts | 128° |
| 2026-05-06 08:19 | 49.50101 | 6.31589 | 32787 ft | 448 kts | 128° |
| 2026-05-06 08:20 | 49.45972 | 6.38585 | 32793 ft | 439 kts | 146° |
| 2026-05-06 08:20 | 49.40744 | 6.43207 | 32796 ft | 432 kts | 159° |
| 2026-05-06 08:21 | 49.35240 | 6.46932 | 32796 ft | 432 kts | 159° |
| 2026-05-06 08:21 | 49.29747 | 6.50673 | 32809 ft | 432 kts | 159° |
| 2026-05-06 08:22 | 49.24265 | 6.54403 | 32819 ft | 431 kts | 159° |
| 2026-05-06 08:22 | 49.18785 | 6.58109 | 32822 ft | 430 kts | 159° |
| 2026-05-06 08:23 | 49.13312 | 6.61795 | 32824 ft | 430 kts | 159° |
| 2026-05-06 08:23 | 49.07847 | 6.65461 | 32829 ft | 428 kts | 159° |
| 2026-05-06 08:24 | 49.02452 | 6.69075 | 32838 ft | 425 kts | 159° |
| 2026-05-06 08:24 | 48.97063 | 6.72760 | 32834 ft | 424 kts | 157° |
| 2026-05-06 08:25 | 48.91840 | 6.76967 | 32834 ft | 425 kts | 154° |
| 2026-05-06 08:25 | 48.86692 | 6.81380 | 32827 ft | 424 kts | 154° |
| 2026-05-06 08:26 | 48.81528 | 6.85711 | 32830 ft | 424 kts | 154° |
| 2026-05-06 08:26 | 48.76340 | 6.89938 | 32829 ft | 423 kts | 155° |
| 2026-05-06 08:27 | 48.71150 | 6.94141 | 32822 ft | 423 kts | 155° |
| 2026-05-06 08:27 | 48.65966 | 6.98352 | 32804 ft | 423 kts | 155° |
| 2026-05-06 08:28 | 48.60785 | 7.02560 | 32817 ft | 423 kts | 155° |
| 2026-05-06 08:28 | 48.55601 | 7.06746 | 32820 ft | 422 kts | 155° |
| 2026-05-06 08:29 | 48.50452 | 7.10892 | 32819 ft | 422 kts | 155° |
| 2026-05-06 08:29 | 48.45275 | 7.15062 | 32820 ft | 422 kts | 155° |
| 2026-05-06 08:30 | 48.40092 | 7.19227 | 32811 ft | 422 kts | 155° |
| 2026-05-06 08:30 | 48.34901 | 7.23393 | 32809 ft | 423 kts | 155° |
| 2026-05-06 08:31 | 48.29696 | 7.27558 | 32813 ft | 424 kts | 155° |
| 2026-05-06 08:31 | 48.24485 | 7.31716 | 32789 ft | 424 kts | 155° |
| 2026-05-06 08:32 | 48.19260 | 7.35872 | 32788 ft | 425 kts | 156° |
| 2026-05-06 08:32 | 48.14027 | 7.40021 | 32796 ft | 426 kts | 156° |
| 2026-05-06 08:33 | 48.08780 | 7.44180 | 32816 ft | 427 kts | 156° |
| 2026-05-06 08:33 | 48.03528 | 7.48337 | 32819 ft | 427 kts | 156° |
| 2026-05-06 08:34 | 47.95683 | 7.54552 | 32830 ft | 429 kts | 153° |
| 2026-05-06 08:35 | 47.91137 | 7.60413 | 32845 ft | 441 kts | 133° |
| 2026-05-06 08:35 | 47.89455 | 7.64268 | 32814 ft | 448 kts | 122° |
| 2026-05-06 08:35 | 47.88237 | 7.68579 | 32823 ft | 454 kts | 116° |
| 2026-05-06 08:36 | 47.86027 | 7.77381 | 32836 ft | 454 kts | 117° |
| 2026-05-06 08:36 | 47.83796 | 7.86160 | 32841 ft | 453 kts | 117° |
| 2026-05-06 08:37 | 47.81559 | 7.94917 | 32845 ft | 453 kts | 117° |
| 2026-05-06 08:37 | 47.79316 | 8.03673 | 32843 ft | 453 kts | 117° |
| 2026-05-06 08:38 | 47.77068 | 8.12414 | 32839 ft | 453 kts | 117° |
| 2026-05-06 08:38 | 47.74811 | 8.21155 | 32851 ft | 453 kts | 117° |
| 2026-05-06 08:39 | 47.72546 | 8.29882 | 32850 ft | 453 kts | 117° |
| 2026-05-06 08:39 | 47.70274 | 8.38596 | 32846 ft | 452 kts | 118° |
| 2026-05-06 08:40 | 47.67373 | 8.46673 | 32827 ft | 436 kts | 135° |
| 2026-05-06 08:40 | 47.63652 | 8.53639 | 32839 ft | 434 kts | 136° |
| 2026-05-06 08:41 | 47.59905 | 8.60655 | 32845 ft | 434 kts | 136° |
| 2026-05-06 08:41 | 47.56160 | 8.67668 | 32848 ft | 434 kts | 136° |
| 2026-05-06 08:42 | 47.52411 | 8.74655 | 32850 ft | 433 kts | 136° |
| 2026-05-06 08:42 | 47.48649 | 8.81620 | 32820 ft | 434 kts | 136° |
| 2026-05-06 08:43 | 47.44883 | 8.88593 | 32816 ft | 435 kts | 136° |
| 2026-05-06 08:43 | 47.41102 | 8.95580 | 32823 ft | 436 kts | 136° |
| 2026-05-06 08:44 | 47.37314 | 9.02564 | 32831 ft | 436 kts | 136° |
| 2026-05-06 08:44 | 47.33515 | 9.09548 | 32833 ft | 436 kts | 136° |
| 2026-05-06 08:45 | 47.29713 | 9.16520 | 32797 ft | 436 kts | 136° |
| 2026-05-06 08:45 | 47.25899 | 9.23485 | 32811 ft | 437 kts | 136° |
| 2026-05-06 08:46 | 47.22080 | 9.30450 | 32819 ft | 437 kts | 136° |
| 2026-05-06 08:46 | 47.18291 | 9.37369 | 32810 ft | 437 kts | 136° |
| 2026-05-06 08:47 | 47.14467 | 9.44316 | 32811 ft | 437 kts | 136° |
| 2026-05-06 08:47 | 47.10623 | 9.51261 | 32790 ft | 439 kts | 137° |
| 2026-05-06 08:48 | 47.06762 | 9.58216 | 32799 ft | 440 kts | 137° |
| 2026-05-06 08:48 | 47.02892 | 9.65193 | 32809 ft | 441 kts | 137° |
| 2026-05-06 08:49 | 46.99013 | 9.72176 | 32821 ft | 442 kts | 137° |
| 2026-05-06 08:49 | 46.95127 | 9.79141 | 32829 ft | 441 kts | 137° |
| 2026-05-06 08:50 | 46.91238 | 9.86101 | 32820 ft | 442 kts | 138° |
| 2026-05-06 08:50 | 46.87336 | 9.93061 | 32829 ft | 444 kts | 138° |
| 2026-05-06 08:51 | 46.83414 | 10.00028 | 32848 ft | 444 kts | 138° |
| 2026-05-06 08:51 | 46.79486 | 10.06996 | 32861 ft | 445 kts | 138° |
| 2026-05-06 08:52 | 46.75552 | 10.13966 | 32881 ft | 445 kts | 138° |
| 2026-05-06 08:52 | 46.71641 | 10.20879 | 32852 ft | 445 kts | 139° |
| 2026-05-06 08:53 | 46.67694 | 10.27819 | 32869 ft | 445 kts | 139° |
| 2026-05-06 08:53 | 46.63736 | 10.34758 | 32887 ft | 445 kts | 139° |
| 2026-05-06 08:54 | 46.59774 | 10.41693 | 32908 ft | 445 kts | 139° |
| 2026-05-06 08:54 | 46.55816 | 10.48615 | 32920 ft | 446 kts | 138° |
| 2026-05-06 08:55 | 46.52037 | 10.55815 | 32893 ft | 450 kts | 135° |
| 2026-05-06 08:55 | 46.48400 | 10.63228 | 32902 ft | 451 kts | 134° |
| 2026-05-06 08:56 | 46.44734 | 10.70612 | 32904 ft | 451 kts | 136° |
| 2026-05-06 08:56 | 46.41006 | 10.77917 | 32912 ft | 450 kts | 136° |
| 2026-05-06 08:57 | 46.37280 | 10.85148 | 32980 ft | 452 kts | 136° |
| 2026-05-06 08:57 | 46.33511 | 10.92466 | 33207 ft | 455 kts | 136° |
| 2026-05-06 08:57 | 46.31617 | 10.96146 | 33346 ft | 457 kts | 136° |
| 2026-05-06 08:58 | 46.29720 | 10.99835 | 33487 ft | 458 kts | 136° |
| 2026-05-06 08:58 | 46.27818 | 11.03534 | 33622 ft | 459 kts | 136° |
| 2026-05-06 08:58 | 46.25915 | 11.07233 | 33800 ft | 459 kts | 136° |
| 2026-05-06 08:58 | 46.24008 | 11.10932 | 34008 ft | 459 kts | 136° |
| 2026-05-06 08:59 | 46.22102 | 11.14626 | 34207 ft | 459 kts | 136° |
| 2026-05-06 08:59 | 46.20193 | 11.18315 | 34384 ft | 459 kts | 136° |
| 2026-05-06 08:59 | 46.18279 | 11.22002 | 34525 ft | 458 kts | 136° |
| 2026-05-06 08:59 | 46.16365 | 11.25679 | 34673 ft | 458 kts | 136° |
| 2026-05-06 09:00 | 46.15098 | 11.28112 | 34806 ft | 458 kts | 136° |
| 2026-05-06 09:00 | 46.13185 | 11.31782 | 34927 ft | 458 kts | 135° |
| 2026-05-06 09:00 | 46.11269 | 11.35458 | 34940 ft | 458 kts | 135° |
| 2026-05-06 09:01 | 46.07437 | 11.42800 | 34941 ft | 458 kts | 135° |
| 2026-05-06 09:01 | 46.03599 | 11.50127 | 34949 ft | 459 kts | 135° |
| 2026-05-06 09:02 | 45.99759 | 11.57446 | 34943 ft | 458 kts | 136° |
| 2026-05-06 09:02 | 45.95918 | 11.64751 | 34956 ft | 458 kts | 136° |
| 2026-05-06 09:03 | 45.92079 | 11.72056 | 34963 ft | 458 kts | 135° |
| 2026-05-06 09:03 | 45.88315 | 11.79452 | 34964 ft | 459 kts | 135° |
| 2026-05-06 09:04 | 45.84592 | 11.86894 | 34958 ft | 459 kts | 134° |
| 2026-05-06 09:04 | 45.80860 | 11.94303 | 34930 ft | 459 kts | 135° |
| 2026-05-06 09:05 | 45.77094 | 12.01694 | 34940 ft | 459 kts | 135° |
| 2026-05-06 09:05 | 45.73312 | 12.09071 | 34954 ft | 460 kts | 135° |
| 2026-05-06 09:06 | 45.69519 | 12.16452 | 34957 ft | 460 kts | 135° |
| 2026-05-06 09:06 | 45.65737 | 12.23833 | 34894 ft | 460 kts | 134° |
| 2026-05-06 09:07 | 45.61977 | 12.31162 | 34905 ft | 461 kts | 134° |
| 2026-05-06 09:07 | 45.58171 | 12.38525 | 34942 ft | 461 kts | 134° |
| 2026-05-06 09:08 | 45.54359 | 12.45888 | 34952 ft | 462 kts | 134° |
| 2026-05-06 09:08 | 45.50538 | 12.53250 | 34955 ft | 462 kts | 134° |
| 2026-05-06 09:09 | 45.46702 | 12.60602 | 34920 ft | 463 kts | 134° |
| 2026-05-06 09:09 | 45.42858 | 12.67974 | 34922 ft | 464 kts | 134° |
| 2026-05-06 09:10 | 45.39002 | 12.75356 | 34930 ft | 465 kts | 134° |
| 2026-05-06 09:10 | 45.35156 | 12.82698 | 34949 ft | 466 kts | 134° |
| 2026-05-06 09:11 | 45.31278 | 12.90078 | 34920 ft | 467 kts | 134° |
| 2026-05-06 09:11 | 45.27381 | 12.97459 | 34935 ft | 467 kts | 134° |
| 2026-05-06 09:12 | 45.23506 | 13.04876 | 34927 ft | 469 kts | 133° |
| 2026-05-06 09:12 | 45.19730 | 13.12415 | 34937 ft | 469 kts | 132° |
| 2026-05-06 09:13 | 45.15968 | 13.19966 | 34930 ft | 469 kts | 132° |
| 2026-05-06 09:13 | 45.12170 | 13.27483 | 34934 ft | 470 kts | 132° |
| 2026-05-06 09:14 | 45.08337 | 13.34977 | 34955 ft | 470 kts | 133° |
| 2026-05-06 09:14 | 45.04501 | 13.42471 | 34956 ft | 471 kts | 132° |
| 2026-05-06 09:15 | 45.00683 | 13.49920 | 34959 ft | 471 kts | 132° |
| 2026-05-06 09:15 | 44.96823 | 13.57439 | 34999 ft | 474 kts | 132° |
| 2026-05-06 09:16 | 44.92952 | 13.64962 | 34992 ft | 472 kts | 132° |
| 2026-05-06 09:16 | 44.89095 | 13.72457 | 35003 ft | 472 kts | 132° |
| 2026-05-06 09:17 | 44.85223 | 13.79943 | 35021 ft | 473 kts | 132° |
| 2026-05-06 09:17 | 44.81336 | 13.87431 | 35009 ft | 474 kts | 132° |
| 2026-05-06 09:18 | 44.77431 | 13.94920 | 35023 ft | 475 kts | 132° |
| 2026-05-06 09:18 | 44.73525 | 14.02413 | 35025 ft | 475 kts | 132° |
| 2026-05-06 09:19 | 44.69635 | 14.09882 | 35004 ft | 473 kts | 132° |
| 2026-05-06 09:19 | 44.65735 | 14.17322 | 35001 ft | 472 kts | 132° |
| 2026-05-06 09:20 | 44.61829 | 14.24735 | 35010 ft | 472 kts | 132° |
| 2026-05-06 09:20 | 44.57920 | 14.32142 | 35029 ft | 472 kts | 132° |
| 2026-05-06 09:21 | 44.54038 | 14.39496 | 35014 ft | 472 kts | 132° |
| 2026-05-06 09:21 | 44.50130 | 14.46882 | 35010 ft | 472 kts | 132° |
| 2026-05-06 09:22 | 44.46222 | 14.54256 | 35013 ft | 471 kts | 132° |
| 2026-05-06 09:22 | 44.42311 | 14.61610 | 35009 ft | 471 kts | 132° |
| 2026-05-06 09:23 | 44.38398 | 14.68939 | 35016 ft | 470 kts | 132° |
| 2026-05-06 09:23 | 44.34479 | 14.76260 | 35020 ft | 470 kts | 132° |
| 2026-05-06 09:24 | 44.30559 | 14.83566 | 35020 ft | 470 kts | 132° |
| 2026-05-06 09:24 | 44.26641 | 14.90867 | 35022 ft | 470 kts | 132° |
| 2026-05-06 09:25 | 44.22718 | 14.98155 | 35021 ft | 470 kts | 132° |
| 2026-05-06 09:25 | 44.18785 | 15.05423 | 35010 ft | 469 kts | 132° |
| 2026-05-06 09:26 | 44.14883 | 15.12621 | 35040 ft | 468 kts | 132° |
| 2026-05-06 09:26 | 44.10961 | 15.19848 | 35051 ft | 467 kts | 132° |
| 2026-05-06 09:27 | 44.07034 | 15.27049 | 35058 ft | 467 kts | 132° |
| 2026-05-06 09:27 | 44.03113 | 15.34238 | 35043 ft | 467 kts | 132° |
| 2026-05-06 09:28 | 43.99189 | 15.41418 | 35035 ft | 467 kts | 132° |
| 2026-05-06 09:28 | 43.95255 | 15.48589 | 35030 ft | 467 kts | 132° |
| 2026-05-06 09:29 | 43.91315 | 15.55755 | 35021 ft | 467 kts | 132° |
| 2026-05-06 09:29 | 43.87376 | 15.62907 | 35034 ft | 467 kts | 132° |
| 2026-05-06 09:30 | 43.83432 | 15.70045 | 35012 ft | 466 kts | 132° |
| 2026-05-06 09:30 | 43.79509 | 15.77133 | 35020 ft | 467 kts | 132° |
| 2026-05-06 09:31 | 43.75552 | 15.84258 | 35029 ft | 467 kts | 132° |
| 2026-05-06 09:31 | 43.71592 | 15.91373 | 35030 ft | 467 kts | 132° |
| 2026-05-06 09:32 | 43.67623 | 15.98493 | 35035 ft | 467 kts | 132° |
| 2026-05-06 09:32 | 43.63648 | 16.05601 | 35022 ft | 468 kts | 131° |
| 2026-05-06 09:33 | 43.59669 | 16.12703 | 35036 ft | 468 kts | 131° |
| 2026-05-06 09:33 | 43.55681 | 16.19798 | 35079 ft | 468 kts | 132° |
| 2026-05-06 09:34 | 43.51690 | 16.26873 | 35081 ft | 468 kts | 132° |
| 2026-05-06 09:34 | 43.48085 | 16.34365 | 35081 ft | 472 kts | 122° |
| 2026-05-06 09:35 | 43.44907 | 16.42271 | 35070 ft | 472 kts | 122° |
| 2026-05-06 09:35 | 43.41719 | 16.50167 | 35059 ft | 472 kts | 122° |
| 2026-05-06 09:36 | 43.38528 | 16.58050 | 35056 ft | 471 kts | 122° |
| 2026-05-06 09:36 | 43.35359 | 16.65870 | 35072 ft | 471 kts | 122° |
| 2026-05-06 09:37 | 43.32161 | 16.73707 | 35065 ft | 470 kts | 122° |
| 2026-05-06 09:37 | 43.28961 | 16.81545 | 35073 ft | 471 kts | 122° |
| 2026-05-06 09:38 | 43.25756 | 16.89373 | 35075 ft | 471 kts | 122° |
| 2026-05-06 09:38 | 43.22542 | 16.97197 | 35084 ft | 471 kts | 122° |
| 2026-05-06 09:39 | 43.19325 | 17.05013 | 35075 ft | 471 kts | 122° |
| 2026-05-06 09:39 | 43.16097 | 17.12818 | 35083 ft | 471 kts | 122° |
| 2026-05-06 09:40 | 43.12873 | 17.20615 | 35090 ft | 471 kts | 122° |
| 2026-05-06 09:40 | 43.08018 | 17.32293 | 35093 ft | 471 kts | 123° |
| 2026-05-06 09:41 | 43.04779 | 17.40074 | 35094 ft | 471 kts | 122° |
| 2026-05-06 09:41 | 43.01555 | 17.47796 | 35098 ft | 471 kts | 123° |
| 2026-05-06 09:42 | 42.98298 | 17.55561 | 35100 ft | 471 kts | 123° |
| 2026-05-06 09:42 | 42.95037 | 17.63324 | 35102 ft | 471 kts | 123° |
| 2026-05-06 09:43 | 42.91771 | 17.71079 | 35104 ft | 471 kts | 123° |
| 2026-05-06 09:43 | 42.88501 | 17.78834 | 35094 ft | 472 kts | 122° |
| 2026-05-06 09:44 | 42.85222 | 17.86581 | 35102 ft | 472 kts | 123° |
| 2026-05-06 09:44 | 42.81935 | 17.94322 | 35108 ft | 472 kts | 123° |
| 2026-05-06 09:45 | 42.78662 | 18.02005 | 35108 ft | 472 kts | 123° |
| 2026-05-06 09:45 | 42.75364 | 18.09733 | 35124 ft | 472 kts | 123° |
| 2026-05-06 09:46 | 42.72063 | 18.17449 | 35130 ft | 472 kts | 123° |
| 2026-05-06 09:46 | 42.68756 | 18.25151 | 35132 ft | 472 kts | 123° |
| 2026-05-06 09:47 | 42.65446 | 18.32843 | 35134 ft | 472 kts | 123° |
| 2026-05-06 09:47 | 42.62130 | 18.40530 | 35130 ft | 472 kts | 123° |
| 2026-05-06 09:48 | 42.58809 | 18.48206 | 35126 ft | 472 kts | 123° |
| 2026-05-06 09:48 | 42.55483 | 18.55881 | 35123 ft | 472 kts | 123° |
| 2026-05-06 09:49 | 42.52149 | 18.63551 | 35119 ft | 472 kts | 123° |
| 2026-05-06 09:49 | 42.48808 | 18.71211 | 35122 ft | 472 kts | 123° |
| 2026-05-06 09:50 | 42.45464 | 18.78865 | 35109 ft | 472 kts | 123° |
| 2026-05-06 09:50 | 42.42139 | 18.86462 | 35112 ft | 472 kts | 123° |
| 2026-05-06 09:51 | 42.38781 | 18.94107 | 35123 ft | 473 kts | 123° |
| 2026-05-06 09:51 | 42.35418 | 19.01748 | 35124 ft | 473 kts | 123° |
| 2026-05-06 09:52 | 42.32047 | 19.09383 | 35126 ft | 473 kts | 123° |
| 2026-05-06 09:52 | 42.28670 | 19.17015 | 35123 ft | 473 kts | 123° |
| 2026-05-06 09:53 | 42.25284 | 19.24631 | 35120 ft | 473 kts | 123° |
| 2026-05-06 09:53 | 42.21887 | 19.32247 | 35122 ft | 474 kts | 123° |
| 2026-05-06 09:54 | 42.18492 | 19.39869 | 35127 ft | 474 kts | 123° |
| 2026-05-06 09:54 | 42.15093 | 19.47489 | 35129 ft | 475 kts | 123° |
| 2026-05-06 09:55 | 42.11675 | 19.55111 | 35117 ft | 475 kts | 123° |
| 2026-05-06 09:55 | 42.08245 | 19.62733 | 35121 ft | 476 kts | 123° |
| 2026-05-06 09:56 | 42.04811 | 19.70355 | 35121 ft | 476 kts | 123° |
| 2026-05-06 09:56 | 42.01392 | 19.77918 | 35126 ft | 477 kts | 123° |
| 2026-05-06 09:57 | 41.97937 | 19.85530 | 35122 ft | 478 kts | 123° |
| 2026-05-06 09:57 | 41.94475 | 19.93162 | 35122 ft | 479 kts | 123° |
| 2026-05-06 09:58 | 41.91009 | 20.00785 | 35117 ft | 479 kts | 123° |
| 2026-05-06 09:58 | 41.87525 | 20.08410 | 35119 ft | 479 kts | 123° |
| 2026-05-06 09:59 | 41.84030 | 20.16027 | 35126 ft | 480 kts | 123° |
| 2026-05-06 09:59 | 41.81119 | 20.22365 | 35106 ft | 480 kts | 123° |
| 2026-05-06 10:00 | 41.77618 | 20.29997 | 35105 ft | 481 kts | 123° |
| 2026-05-06 10:00 | 41.74110 | 20.37627 | 35108 ft | 482 kts | 123° |
| 2026-05-06 10:01 | 41.70589 | 20.45259 | 35111 ft | 482 kts | 123° |
| 2026-05-06 10:01 | 41.67054 | 20.52866 | 35113 ft | 482 kts | 123° |
| 2026-05-06 10:02 | 41.63660 | 20.60595 | 35111 ft | 482 kts | 120° |
| 2026-05-06 10:02 | 41.60451 | 20.68466 | 35106 ft | 482 kts | 119° |
| 2026-05-06 10:03 | 41.57233 | 20.76326 | 35099 ft | 482 kts | 120° |
| 2026-05-06 10:03 | 41.53952 | 20.84135 | 35098 ft | 482 kts | 120° |
| 2026-05-06 10:04 | 41.50637 | 20.91911 | 35099 ft | 482 kts | 120° |
| 2026-05-06 10:04 | 41.47311 | 20.99673 | 35100 ft | 482 kts | 123° |
| 2026-05-06 10:05 | 41.45229 | 21.03140 | 35104 ft | 478 kts | 136° |
| 2026-05-06 10:05 | 41.42898 | 21.06305 | 35104 ft | 479 kts | 136° |
| 2026-05-06 10:05 | 41.38242 | 21.12570 | 35095 ft | 479 kts | 136° |
| 2026-05-06 10:06 | 41.33514 | 21.18821 | 35088 ft | 479 kts | 138° |
| 2026-05-06 10:06 | 41.28598 | 21.24824 | 35099 ft | 480 kts | 138° |
| 2026-05-06 10:07 | 41.23778 | 21.30972 | 35102 ft | 481 kts | 136° |
| 2026-05-06 10:07 | 41.19081 | 21.37307 | 35091 ft | 481 kts | 135° |
| 2026-05-06 10:08 | 41.14403 | 21.43661 | 35104 ft | 481 kts | 136° |
| 2026-05-06 10:08 | 41.09696 | 21.49961 | 35103 ft | 481 kts | 136° |
| 2026-05-06 10:09 | 41.04960 | 21.56229 | 35102 ft | 481 kts | 136° |
| 2026-05-06 10:09 | 41.00231 | 21.62484 | 35098 ft | 481 kts | 136° |
| 2026-05-06 10:10 | 40.95498 | 21.68736 | 35105 ft | 480 kts | 136° |
| 2026-05-06 10:10 | 40.90772 | 21.74976 | 35094 ft | 480 kts | 136° |
| 2026-05-06 10:11 | 40.86043 | 21.81210 | 35101 ft | 480 kts | 136° |
| 2026-05-06 10:11 | 40.81311 | 21.87438 | 35095 ft | 481 kts | 136° |
| 2026-05-06 10:12 | 40.76556 | 21.93663 | 35087 ft | 481 kts | 136° |
| 2026-05-06 10:12 | 40.71834 | 21.99840 | 35096 ft | 482 kts | 136° |
| 2026-05-06 10:13 | 40.67041 | 22.06097 | 35096 ft | 482 kts | 136° |
| 2026-05-06 10:13 | 40.62310 | 22.12265 | 35091 ft | 482 kts | 136° |
| 2026-05-06 10:14 | 40.57536 | 22.18463 | 35079 ft | 483 kts | 136° |
| 2026-05-06 10:14 | 40.52754 | 22.24671 | 35079 ft | 483 kts | 136° |
| 2026-05-06 10:15 | 40.47969 | 22.30879 | 35082 ft | 484 kts | 136° |
| 2026-05-06 10:15 | 40.43174 | 22.37084 | 35089 ft | 484 kts | 136° |
| 2026-05-06 10:16 | 40.38371 | 22.43275 | 35095 ft | 484 kts | 136° |
| 2026-05-06 10:16 | 40.33561 | 22.49455 | 35091 ft | 485 kts | 136° |
| 2026-05-06 10:17 | 40.28734 | 22.55634 | 35088 ft | 485 kts | 136° |
| 2026-05-06 10:17 | 40.23908 | 22.61816 | 35093 ft | 486 kts | 136° |
| 2026-05-06 10:18 | 40.19077 | 22.68003 | 35094 ft | 486 kts | 136° |
| 2026-05-06 10:18 | 40.14242 | 22.74175 | 35108 ft | 486 kts | 136° |
| 2026-05-06 10:19 | 40.09399 | 22.80334 | 35106 ft | 486 kts | 136° |
| 2026-05-06 10:19 | 40.04542 | 22.86498 | 35088 ft | 487 kts | 136° |
| 2026-05-06 10:20 | 39.99683 | 22.92663 | 35090 ft | 488 kts | 136° |
| 2026-05-06 10:20 | 39.94815 | 22.98830 | 35108 ft | 488 kts | 136° |
| 2026-05-06 10:21 | 39.89931 | 23.04991 | 35105 ft | 489 kts | 136° |
| 2026-05-06 10:21 | 39.85041 | 23.11143 | 35121 ft | 489 kts | 136° |
| 2026-05-06 10:22 | 39.80143 | 23.17299 | 35094 ft | 490 kts | 136° |
| 2026-05-06 10:22 | 39.75235 | 23.23461 | 35105 ft | 491 kts | 136° |
| 2026-05-06 10:23 | 39.70319 | 23.29623 | 35114 ft | 491 kts | 136° |
| 2026-05-06 10:23 | 39.65396 | 23.35774 | 35108 ft | 491 kts | 136° |
| 2026-05-06 10:24 | 39.60464 | 23.41921 | 35112 ft | 492 kts | 136° |
| 2026-05-06 10:24 | 39.55531 | 23.48056 | 35110 ft | 492 kts | 136° |
| 2026-05-06 10:25 | 39.50592 | 23.54192 | 35104 ft | 492 kts | 136° |
| 2026-05-06 10:25 | 39.45682 | 23.60279 | 35113 ft | 492 kts | 136° |
| 2026-05-06 10:26 | 39.40736 | 23.66394 | 35110 ft | 492 kts | 136° |
| 2026-05-06 10:26 | 39.35783 | 23.72500 | 35093 ft | 492 kts | 136° |
| 2026-05-06 10:27 | 39.30828 | 23.78596 | 35115 ft | 492 kts | 136° |
| 2026-05-06 10:27 | 39.25869 | 23.84694 | 35102 ft | 493 kts | 136° |
| 2026-05-06 10:28 | 39.20905 | 23.90795 | 35109 ft | 493 kts | 136° |
| 2026-05-06 10:28 | 39.15933 | 23.96874 | 35112 ft | 493 kts | 136° |
| 2026-05-06 10:29 | 39.10952 | 24.02947 | 35117 ft | 493 kts | 137° |
| 2026-05-06 10:29 | 39.05970 | 24.09018 | 35131 ft | 493 kts | 136° |
| 2026-05-06 10:30 | 39.00983 | 24.15095 | 35121 ft | 494 kts | 136° |
| 2026-05-06 10:30 | 38.95977 | 24.21162 | 35101 ft | 495 kts | 137° |
| 2026-05-06 10:31 | 38.90973 | 24.27226 | 35121 ft | 495 kts | 136° |
| 2026-05-06 10:31 | 38.85965 | 24.33283 | 35121 ft | 495 kts | 136° |
| 2026-05-06 10:32 | 38.80956 | 24.39329 | 35138 ft | 495 kts | 136° |
| 2026-05-06 10:32 | 38.75939 | 24.45373 | 35118 ft | 495 kts | 136° |
| 2026-05-06 10:33 | 38.70908 | 24.51410 | 35120 ft | 496 kts | 136° |
| 2026-05-06 10:33 | 38.65871 | 24.57445 | 35111 ft | 496 kts | 137° |
| 2026-05-06 10:34 | 38.60834 | 24.63471 | 35119 ft | 496 kts | 137° |
| 2026-05-06 10:34 | 38.55796 | 24.69484 | 35123 ft | 496 kts | 137° |
| 2026-05-06 10:35 | 38.50758 | 24.75493 | 35126 ft | 495 kts | 137° |
| 2026-05-06 10:35 | 38.45717 | 24.81494 | 35129 ft | 496 kts | 137° |
| 2026-05-06 10:36 | 38.40669 | 24.87481 | 35126 ft | 496 kts | 137° |
| 2026-05-06 10:36 | 38.35620 | 24.93460 | 35122 ft | 496 kts | 137° |
| 2026-05-06 10:37 | 38.30564 | 24.99442 | 35119 ft | 496 kts | 137° |
| 2026-05-06 10:37 | 38.25508 | 25.05412 | 35131 ft | 496 kts | 137° |
| 2026-05-06 10:38 | 38.20442 | 25.11383 | 35124 ft | 497 kts | 137° |
| 2026-05-06 10:38 | 38.15368 | 25.17340 | 35128 ft | 497 kts | 137° |
| 2026-05-06 10:39 | 38.10284 | 25.23295 | 35127 ft | 497 kts | 137° |
| 2026-05-06 10:39 | 38.05203 | 25.29239 | 35123 ft | 497 kts | 137° |
| 2026-05-06 10:40 | 38.00125 | 25.35181 | 35135 ft | 497 kts | 137° |
| 2026-05-06 10:40 | 37.95036 | 25.41125 | 35130 ft | 498 kts | 137° |
| 2026-05-06 10:41 | 37.89936 | 25.47058 | 35132 ft | 498 kts | 137° |
| 2026-05-06 10:41 | 37.84831 | 25.52989 | 35134 ft | 498 kts | 137° |
| 2026-05-06 10:42 | 37.79727 | 25.58914 | 34986 ft | 498 kts | 137° |
| 2026-05-06 10:42 | 37.77168 | 25.61871 | 34742 ft | 497 kts | 137° |
| 2026-05-06 10:42 | 37.74617 | 25.64821 | 34522 ft | 498 kts | 137° |
| 2026-05-06 10:43 | 37.72090 | 25.67738 | 34287 ft | 499 kts | 137° |
| 2026-05-06 10:43 | 37.69524 | 25.70692 | 33794 ft | 501 kts | 137° |
| 2026-05-06 10:43 | 37.66931 | 25.73678 | 32782 ft | 506 kts | 137° |
| 2026-05-06 10:44 | 37.61698 | 25.79710 | 31092 ft | 510 kts | 137° |
| 2026-05-06 10:44 | 37.59099 | 25.82703 | 30535 ft | 505 kts | 137° |
| 2026-05-06 10:44 | 37.56507 | 25.85676 | 29863 ft | 502 kts | 137° |
| 2026-05-06 10:44 | 37.53932 | 25.88624 | 29250 ft | 497 kts | 137° |
| 2026-05-06 10:45 | 37.51382 | 25.91542 | 28635 ft | 493 kts | 137° |
| 2026-05-06 10:45 | 37.48856 | 25.94433 | 28017 ft | 488 kts | 137° |
| 2026-05-06 10:45 | 37.46357 | 25.97296 | 27418 ft | 484 kts | 137° |
| 2026-05-06 10:45 | 37.43879 | 26.00135 | 26820 ft | 480 kts | 137° |
| 2026-05-06 10:46 | 37.41421 | 26.02940 | 26232 ft | 475 kts | 137° |
| 2026-05-06 10:46 | 37.38980 | 26.05718 | 25655 ft | 471 kts | 137° |
| 2026-05-06 10:46 | 37.36562 | 26.08468 | 25090 ft | 466 kts | 137° |
| 2026-05-06 10:46 | 37.34172 | 26.11193 | 24527 ft | 462 kts | 137° |
| 2026-05-06 10:47 | 37.31804 | 26.13894 | 23982 ft | 457 kts | 138° |
| 2026-05-06 10:47 | 37.30244 | 26.15668 | 23612 ft | 455 kts | 138° |
| 2026-05-06 10:47 | 37.27914 | 26.18314 | 23055 ft | 448 kts | 138° |
| 2026-05-06 10:47 | 37.25621 | 26.20920 | 22558 ft | 441 kts | 138° |
| 2026-05-06 10:48 | 37.23363 | 26.23484 | 22064 ft | 435 kts | 138° |
| 2026-05-06 10:48 | 37.21135 | 26.26013 | 21605 ft | 429 kts | 138° |
| 2026-05-06 10:48 | 37.18930 | 26.28509 | 21088 ft | 424 kts | 138° |
| 2026-05-06 10:48 | 37.16753 | 26.30965 | 20616 ft | 419 kts | 138° |
| 2026-05-06 10:49 | 37.14597 | 26.33396 | 20116 ft | 415 kts | 138° |
| 2026-05-06 10:49 | 37.12464 | 26.35803 | 19628 ft | 410 kts | 138° |
| 2026-05-06 10:49 | 37.10352 | 26.38189 | 19124 ft | 407 kts | 138° |
| 2026-05-06 10:49 | 37.08260 | 26.40551 | 18624 ft | 403 kts | 137° |
| 2026-05-06 10:50 | 37.06183 | 26.42895 | 18072 ft | 400 kts | 137° |
| 2026-05-06 10:50 | 37.04127 | 26.45211 | 17559 ft | 395 kts | 137° |
| 2026-05-06 10:50 | 37.02096 | 26.47495 | 17051 ft | 391 kts | 137° |
| 2026-05-06 10:50 | 37.00085 | 26.49755 | 16547 ft | 387 kts | 137° |
| 2026-05-06 10:51 | 36.98093 | 26.51993 | 16041 ft | 383 kts | 137° |
| 2026-05-06 10:51 | 36.96120 | 26.54205 | 15545 ft | 379 kts | 137° |
| 2026-05-06 10:51 | 36.94164 | 26.56394 | 15049 ft | 376 kts | 137° |
| 2026-05-06 10:51 | 36.92224 | 26.58563 | 14556 ft | 373 kts | 137° |
| 2026-05-06 10:52 | 36.90300 | 26.60715 | 14057 ft | 370 kts | 137° |
| 2026-05-06 10:52 | 36.88390 | 26.62856 | 13531 ft | 367 kts | 137° |
| 2026-05-06 10:52 | 36.86501 | 26.64974 | 13027 ft | 363 kts | 136° |
| 2026-05-06 10:52 | 36.84633 | 26.67066 | 12560 ft | 358 kts | 136° |
| 2026-05-06 10:53 | 36.82842 | 26.69127 | 12125 ft | 352 kts | 131° |
| 2026-05-06 10:53 | 36.81210 | 26.71371 | 11679 ft | 347 kts | 130° |
| 2026-05-06 10:53 | 36.79607 | 26.73589 | 11245 ft | 342 kts | 130° |
| 2026-05-06 10:53 | 36.78021 | 26.75777 | 10811 ft | 338 kts | 130° |
| 2026-05-06 10:54 | 36.76460 | 26.77925 | 10554 ft | 328 kts | 130° |
| 2026-05-06 10:54 | 36.74956 | 26.79986 | 10423 ft | 315 kts | 129° |
| 2026-05-06 10:54 | 36.73498 | 26.81983 | 10148 ft | 309 kts | 129° |
| 2026-05-06 10:54 | 36.72071 | 26.83939 | 9962 ft | 302 kts | 129° |
| 2026-05-06 10:55 | 36.70657 | 26.85881 | 9838 ft | 303 kts | 129° |
| 2026-05-06 10:55 | 36.69337 | 26.87932 | 9365 ft | 303 kts | 118° |
| 2026-05-06 10:55 | 36.68363 | 26.90252 | 8840 ft | 302 kts | 112° |
| 2026-05-06 10:55 | 36.67447 | 26.92571 | 8340 ft | 295 kts | 112° |
| 2026-05-06 10:56 | 36.66536 | 26.94855 | 7811 ft | 294 kts | 112° |
| 2026-05-06 10:56 | 36.65626 | 26.97133 | 7303 ft | 293 kts | 112° |
| 2026-05-06 10:56 | 36.64719 | 26.99401 | 6791 ft | 292 kts | 112° |
| 2026-05-06 10:56 | 36.63813 | 27.01658 | 6272 ft | 291 kts | 112° |
| 2026-05-06 10:57 | 36.62936 | 27.03832 | 6015 ft | 282 kts | 112° |
| 2026-05-06 10:57 | 36.62075 | 27.05958 | 5945 ft | 268 kts | 112° |
| 2026-05-06 10:57 | 36.61255 | 27.07988 | 5849 ft | 257 kts | 112° |
| 2026-05-06 10:57 | 36.60465 | 27.09950 | 5736 ft | 253 kts | 111° |
| 2026-05-06 10:58 | 36.59749 | 27.11930 | 5634 ft | 249 kts | 103° |
| 2026-05-06 10:58 | 36.59590 | 27.13988 | 5524 ft | 232 kts | 76° |
| 2026-05-06 10:58 | 36.60054 | 27.15844 | 5117 ft | 219 kts | 61° |
| 2026-05-06 10:58 | 36.60631 | 27.17550 | 4774 ft | 208 kts | 63° |
| 2026-05-06 10:59 | 36.61152 | 27.19180 | 4464 ft | 196 kts | 62° |
| 2026-05-06 10:59 | 36.61926 | 27.20449 | 4177 ft | 178 kts | 33° |
| 2026-05-06 10:59 | 36.63033 | 27.21041 | 3935 ft | 174 kts | 7° |
| 2026-05-06 10:59 | 36.64227 | 27.20903 | 3706 ft | 175 kts | 341° |
| 2026-05-06 11:00 | 36.65297 | 27.20149 | 3467 ft | 177 kts | 330° |
| 2026-05-06 11:00 | 36.66320 | 27.19345 | 3216 ft | 171 kts | 330° |
| 2026-05-06 11:00 | 36.67310 | 27.18568 | 2994 ft | 165 kts | 329° |
| 2026-05-06 11:00 | 36.68270 | 27.17814 | 2795 ft | 161 kts | 329° |
| 2026-05-06 11:01 | 36.69196 | 27.17088 | 2542 ft | 153 kts | 329° |
| 2026-05-06 11:01 | 36.70081 | 27.16396 | 2351 ft | 148 kts | 329° |
| 2026-05-06 11:01 | 36.70950 | 27.15720 | 2157 ft | 147 kts | 328° |
| 2026-05-06 11:01 | 36.71811 | 27.15053 | 1971 ft | 145 kts | 328° |
| 2026-05-06 11:02 | 36.72672 | 27.14387 | 1775 ft | 146 kts | 328° |
| 2026-05-06 11:02 | 36.73532 | 27.13721 | 1583 ft | 145 kts | 327° |
| 2026-05-06 11:02 | 36.74388 | 27.13058 | 1381 ft | 146 kts | 328° |
| 2026-05-06 11:02 | 36.75239 | 27.12405 | 1182 ft | 146 kts | 328° |
| 2026-05-06 11:03 | 36.76094 | 27.11732 | 990 ft | 146 kts | 327° |
| 2026-05-06 11:03 | 36.76944 | 27.11047 | 816 ft | 145 kts | 327° |
| 2026-05-06 11:03 | 36.77804 | 27.10389 | 596 ft | 143 kts | 329° |
| 2026-05-06 11:03 | 36.78647 | 27.09745 | 411 ft | 141 kts | 327° |
| 2026-05-06 11:04 | 36.79415 | 27.09156 | 405 ft | 106 kts | 328° |
| 2026-05-06 11:04 | 36.79780 | 27.08870 | 410 ft | 18 kts | 328° |
| 2026-05-06 11:04 | 36.79888 | 27.08785 | 412 ft | 24 kts | 328° |
| 2026-05-06 11:04 | 36.80053 | 27.08656 | 414 ft | 29 kts | 328° |
| 2026-05-06 11:05 | 36.80220 | 27.08527 | 416 ft | 28 kts | 328° |
| 2026-05-06 11:05 | 36.80345 | 27.08459 | 420 ft | 12 kts | 22° |
| 2026-05-06 11:05 | 36.80355 | 27.08528 | 422 ft | 12 kts | 98° |
| 2026-05-06 11:05 | 36.80330 | 27.08652 | 418 ft | 16 kts | 111° |
| 2026-05-06 11:06 | 36.80243 | 27.08743 | 410 ft | 17 kts | 148° |
| 2026-05-06 11:06 | 36.80144 | 27.08819 | 413 ft | 15 kts | 148° |
| 2026-05-06 11:06 | 36.80048 | 27.08892 | 413 ft | 14 kts | 148° |
| 2026-05-06 11:06 | 36.79975 | 27.08954 | 413 ft | 11 kts | 134° |
| 2026-05-06 11:07 | 36.79999 | 27.09019 | 413 ft | 6 kts | 33° |
| 2026-05-06 11:07 | 36.80027 | 27.08999 | 414 ft | 5 kts | 278° |
| 2026-05-06 11:07 | 36.80013 | 27.08973 | 410 ft | 0 kts | 234° |
| 2026-05-06 11:07 | 36.80012 | 27.08971 | 411 ft | 1 kts | 234° |
| 2026-05-06 11:08 | 36.80015 | 27.08976 | 409 ft | 0 kts | 233° |
| 2026-05-06 11:09 | 36.79997 | 27.08958 | 414 ft | 6 kts | 194° |
| 2026-05-06 11:09 | 36.79991 | 27.09013 | 413 ft | 4 kts | 53° |
| 2026-05-06 11:10 | 36.80003 | 27.09032 | 413 ft | 0 kts | 51° |
| 2026-05-06 11:29 | 36.80001 | 27.09029 | 413 ft | 3 kts | 52° |
| 2026-05-06 11:30 | 36.79994 | 27.09006 | 413 ft | 4 kts | 118° |